sensor_id;sensor_type;location;lat;lon;timestamp;P1;durP1;ratioP1;P2;durP2;ratioP2
21806;SDS011;11065;50.786;7.840;2022-12-08T00:00:55;11.47;;;7.93;;
21806;SDS011;11065;50.786;7.840;2022-12-08T00:03:29;11.00;;;8.53;;
21806;SDS011;11065;50.786;7.840;2022-12-08T00:05:56;11.57;;;8.67;;
21806;SDS011;11065;50.786;7.840;2022-12-08T00:08:41;13.33;;;7.80;;
21806;SDS011;11065;50.786;7.840;2022-12-08T00:11:27;9.60;;;7.00;;
21806;SDS011;11065;50.786;7.840;2022-12-08T00:13:53;10.47;;;7.87;;
21806;SDS011;11065;50.786;7.840;2022-12-08T00:16:21;10.57;;;8.00;;
21806;SDS011;11065;50.786;7.840;2022-12-08T00:18:48;10.70;;;7.63;;
21806;SDS011;11065;50.786;7.840;2022-12-08T00:21:14;10.93;;;8.50;;
21806;SDS011;11065;50.786;7.840;2022-12-08T00:23:41;11.00;;;8.30;;
21806;SDS011;11065;50.786;7.840;2022-12-08T00:26:08;11.50;;;8.17;;
21806;SDS011;11065;50.786;7.840;2022-12-08T00:28:35;13.37;;;7.57;;
21806;SDS011;11065;50.786;7.840;2022-12-08T00:31:11;13.43;;;8.27;;
21806;SDS011;11065;50.786;7.840;2022-12-08T00:33:38;11.27;;;7.90;;
21806;SDS011;11065;50.786;7.840;2022-12-08T00:36:08;12.33;;;8.30;;
21806;SDS011;11065;50.786;7.840;2022-12-08T00:38:37;12.27;;;9.67;;
21806;SDS011;11065;50.786;7.840;2022-12-08T00:41:10;10.83;;;8.67;;
21806;SDS011;11065;50.786;7.840;2022-12-08T00:43:43;12.47;;;9.13;;
21806;SDS011;11065;50.786;7.840;2022-12-08T00:46:10;12.87;;;8.37;;
21806;SDS011;11065;50.786;7.840;2022-12-08T00:48:37;11.77;;;8.70;;
21806;SDS011;11065;50.786;7.840;2022-12-08T00:51:04;12.90;;;9.10;;
21806;SDS011;11065;50.786;7.840;2022-12-08T00:53:31;10.93;;;8.67;;
21806;SDS011;11065;50.786;7.840;2022-12-08T00:55:58;8.87;;;7.57;;
21806;SDS011;11065;50.786;7.840;2022-12-08T00:58:24;11.53;;;8.30;;
21806;SDS011;11065;50.786;7.840;2022-12-08T01:00:51;11.17;;;7.90;;
21806;SDS011;11065;50.786;7.840;2022-12-08T01:03:18;9.87;;;7.50;;
21806;SDS011;11065;50.786;7.840;2022-12-08T01:05:45;10.33;;;7.53;;
21806;SDS011;11065;50.786;7.840;2022-12-08T01:08:12;9.73;;;7.00;;
21806;SDS011;11065;50.786;7.840;2022-12-08T01:10:38;10.03;;;7.53;;
21806;SDS011;11065;50.786;7.840;2022-12-08T01:13:05;10.30;;;7.03;;
21806;SDS011;11065;50.786;7.840;2022-12-08T01:15:32;10.50;;;7.73;;
21806;SDS011;11065;50.786;7.840;2022-12-08T01:17:59;9.07;;;6.87;;
21806;SDS011;11065;50.786;7.840;2022-12-08T01:20:25;10.00;;;7.77;;
21806;SDS011;11065;50.786;7.840;2022-12-08T01:22:52;10.10;;;7.37;;
21806;SDS011;11065;50.786;7.840;2022-12-08T01:25:19;9.93;;;6.97;;
21806;SDS011;11065;50.786;7.840;2022-12-08T01:27:46;9.20;;;7.43;;
21806;SDS011;11065;50.786;7.840;2022-12-08T01:30:13;10.77;;;7.30;;
21806;SDS011;11065;50.786;7.840;2022-12-08T01:32:40;10.80;;;7.10;;
21806;SDS011;11065;50.786;7.840;2022-12-08T01:35:07;13.23;;;8.90;;
21806;SDS011;11065;50.786;7.840;2022-12-08T01:37:34;8.40;;;7.20;;
21806;SDS011;11065;50.786;7.840;2022-12-08T01:40:00;9.83;;;7.60;;
21806;SDS011;11065;50.786;7.840;2022-12-08T01:42:28;9.97;;;7.00;;
21806;SDS011;11065;50.786;7.840;2022-12-08T01:44:58;9.70;;;6.73;;
21806;SDS011;11065;50.786;7.840;2022-12-08T01:47:29;10.37;;;7.07;;
21806;SDS011;11065;50.786;7.840;2022-12-08T01:50:06;10.73;;;7.63;;
21806;SDS011;11065;50.786;7.840;2022-12-08T01:52:38;11.40;;;6.77;;
21806;SDS011;11065;50.786;7.840;2022-12-08T01:55:32;11.23;;;7.03;;
21806;SDS011;11065;50.786;7.840;2022-12-08T01:58:07;8.83;;;6.53;;
21806;SDS011;11065;50.786;7.840;2022-12-08T02:00:40;8.27;;;6.00;;
21806;SDS011;11065;50.786;7.840;2022-12-08T02:03:08;7.80;;;6.07;;
21806;SDS011;11065;50.786;7.840;2022-12-08T02:05:39;8.50;;;6.70;;
21806;SDS011;11065;50.786;7.840;2022-12-08T02:08:08;8.73;;;5.97;;
21806;SDS011;11065;50.786;7.840;2022-12-08T02:10:37;7.77;;;5.47;;
21806;SDS011;11065;50.786;7.840;2022-12-08T02:13:06;8.80;;;5.90;;
21806;SDS011;11065;50.786;7.840;2022-12-08T02:18:18;10.70;;;6.10;;
21806;SDS011;11065;50.786;7.840;2022-12-08T02:24:28;7.20;;;5.43;;
21806;SDS011;11065;50.786;7.840;2022-12-08T02:27:19;8.97;;;6.30;;
21806;SDS011;11065;50.786;7.840;2022-12-08T02:35:48;7.03;;;4.87;;
21806;SDS011;11065;50.786;7.840;2022-12-08T02:40:57;8.53;;;5.00;;
21806;SDS011;11065;50.786;7.840;2022-12-08T02:43:31;6.57;;;4.80;;
21806;SDS011;11065;50.786;7.840;2022-12-08T02:46:04;8.23;;;5.53;;
21806;SDS011;11065;50.786;7.840;2022-12-08T02:48:35;7.27;;;5.20;;
21806;SDS011;11065;50.786;7.840;2022-12-08T02:51:03;7.37;;;4.90;;
21806;SDS011;11065;50.786;7.840;2022-12-08T02:53:31;6.93;;;5.07;;
21806;SDS011;11065;50.786;7.840;2022-12-08T03:04:37;7.50;;;4.77;;
21806;SDS011;11065;50.786;7.840;2022-12-08T03:07:31;8.30;;;4.30;;
21806;SDS011;11065;50.786;7.840;2022-12-08T03:10:31;5.00;;;3.50;;
21806;SDS011;11065;50.786;7.840;2022-12-08T03:13:07;6.43;;;3.60;;
21806;SDS011;11065;50.786;7.840;2022-12-08T03:15:39;6.70;;;4.03;;
21806;SDS011;11065;50.786;7.840;2022-12-08T03:18:09;6.10;;;3.57;;
21806;SDS011;11065;50.786;7.840;2022-12-08T03:20:38;7.73;;;3.70;;
21806;SDS011;11065;50.786;7.840;2022-12-08T03:23:07;5.83;;;3.43;;
21806;SDS011;11065;50.786;7.840;2022-12-08T03:25:37;4.93;;;3.37;;
21806;SDS011;11065;50.786;7.840;2022-12-08T03:28:09;5.47;;;3.10;;
21806;SDS011;11065;50.786;7.840;2022-12-08T03:30:38;4.90;;;3.07;;
21806;SDS011;11065;50.786;7.840;2022-12-08T03:33:23;4.47;;;3.03;;
21806;SDS011;11065;50.786;7.840;2022-12-08T03:35:54;4.50;;;3.03;;
21806;SDS011;11065;50.786;7.840;2022-12-08T03:38:22;6.47;;;3.80;;
21806;SDS011;11065;50.786;7.840;2022-12-08T03:40:49;4.83;;;3.27;;
21806;SDS011;11065;50.786;7.840;2022-12-08T03:43:35;4.13;;;2.73;;
21806;SDS011;11065;50.786;7.840;2022-12-08T03:46:02;4.77;;;2.80;;
21806;SDS011;11065;50.786;7.840;2022-12-08T03:48:29;5.00;;;2.93;;
21806;SDS011;11065;50.786;7.840;2022-12-08T03:50:56;3.67;;;2.77;;
21806;SDS011;11065;50.786;7.840;2022-12-08T03:53:23;3.63;;;2.70;;
21806;SDS011;11065;50.786;7.840;2022-12-08T03:55:49;5.50;;;3.00;;
21806;SDS011;11065;50.786;7.840;2022-12-08T03:58:18;4.83;;;3.20;;
21806;SDS011;11065;50.786;7.840;2022-12-08T04:00:45;3.83;;;2.43;;
21806;SDS011;11065;50.786;7.840;2022-12-08T04:03:11;5.23;;;3.33;;
21806;SDS011;11065;50.786;7.840;2022-12-08T04:05:38;4.90;;;3.23;;
21806;SDS011;11065;50.786;7.840;2022-12-08T04:08:05;4.27;;;3.10;;
21806;SDS011;11065;50.786;7.840;2022-12-08T04:10:32;5.37;;;3.00;;
21806;SDS011;11065;50.786;7.840;2022-12-08T04:12:59;3.47;;;2.47;;
21806;SDS011;11065;50.786;7.840;2022-12-08T04:15:26;5.27;;;2.70;;
21806;SDS011;11065;50.786;7.840;2022-12-08T04:17:52;3.50;;;2.50;;
21806;SDS011;11065;50.786;7.840;2022-12-08T04:20:19;4.17;;;2.50;;
21806;SDS011;11065;50.786;7.840;2022-12-08T04:22:46;3.97;;;2.23;;
21806;SDS011;11065;50.786;7.840;2022-12-08T04:25:13;4.80;;;2.40;;
21806;SDS011;11065;50.786;7.840;2022-12-08T04:27:40;4.73;;;2.70;;
21806;SDS011;11065;50.786;7.840;2022-12-08T04:30:06;3.67;;;2.80;;
21806;SDS011;11065;50.786;7.840;2022-12-08T04:32:34;3.73;;;2.50;;
21806;SDS011;11065;50.786;7.840;2022-12-08T04:35:00;4.60;;;2.57;;
21806;SDS011;11065;50.786;7.840;2022-12-08T04:37:27;4.20;;;2.37;;
21806;SDS011;11065;50.786;7.840;2022-12-08T04:39:54;4.13;;;2.37;;
21806;SDS011;11065;50.786;7.840;2022-12-08T04:42:21;3.60;;;2.30;;
21806;SDS011;11065;50.786;7.840;2022-12-08T04:44:48;3.83;;;2.30;;
21806;SDS011;11065;50.786;7.840;2022-12-08T04:47:15;5.17;;;2.70;;
21806;SDS011;11065;50.786;7.840;2022-12-08T04:49:42;4.80;;;2.30;;
21806;SDS011;11065;50.786;7.840;2022-12-08T04:52:08;3.90;;;2.63;;
21806;SDS011;11065;50.786;7.840;2022-12-08T04:54:35;3.50;;;2.47;;
21806;SDS011;11065;50.786;7.840;2022-12-08T04:57:02;3.13;;;2.33;;
21806;SDS011;11065;50.786;7.840;2022-12-08T04:59:29;4.00;;;2.60;;
21806;SDS011;11065;50.786;7.840;2022-12-08T05:01:56;3.90;;;2.33;;
21806;SDS011;11065;50.786;7.840;2022-12-08T05:04:23;3.53;;;2.23;;
21806;SDS011;11065;50.786;7.840;2022-12-08T05:06:50;3.70;;;2.40;;
21806;SDS011;11065;50.786;7.840;2022-12-08T05:09:17;3.13;;;2.10;;
21806;SDS011;11065;50.786;7.840;2022-12-08T05:11:43;3.70;;;2.60;;
21806;SDS011;11065;50.786;7.840;2022-12-08T05:14:15;4.20;;;2.37;;
21806;SDS011;11065;50.786;7.840;2022-12-08T05:16:43;3.60;;;2.17;;
21806;SDS011;11065;50.786;7.840;2022-12-08T05:19:10;5.10;;;2.90;;
21806;SDS011;11065;50.786;7.840;2022-12-08T05:21:38;3.47;;;2.07;;
21806;SDS011;11065;50.786;7.840;2022-12-08T05:24:05;4.23;;;2.50;;
21806;SDS011;11065;50.786;7.840;2022-12-08T05:26:32;3.73;;;2.40;;
21806;SDS011;11065;50.786;7.840;2022-12-08T05:28:59;3.53;;;2.33;;
21806;SDS011;11065;50.786;7.840;2022-12-08T05:31:26;5.27;;;2.87;;
21806;SDS011;11065;50.786;7.840;2022-12-08T05:33:52;4.30;;;2.47;;
21806;SDS011;11065;50.786;7.840;2022-12-08T05:36:24;3.43;;;2.43;;
21806;SDS011;11065;50.786;7.840;2022-12-08T05:38:51;4.07;;;2.50;;
21806;SDS011;11065;50.786;7.840;2022-12-08T05:41:18;5.07;;;2.60;;
21806;SDS011;11065;50.786;7.840;2022-12-08T05:43:46;4.13;;;2.50;;
21806;SDS011;11065;50.786;7.840;2022-12-08T05:46:13;4.23;;;2.63;;
21806;SDS011;11065;50.786;7.840;2022-12-08T05:48:40;4.27;;;2.90;;
21806;SDS011;11065;50.786;7.840;2022-12-08T05:51:13;4.13;;;2.73;;
21806;SDS011;11065;50.786;7.840;2022-12-08T05:53:43;4.63;;;3.40;;
21806;SDS011;11065;50.786;7.840;2022-12-08T05:56:10;3.83;;;2.43;;
21806;SDS011;11065;50.786;7.840;2022-12-08T05:58:38;6.40;;;3.30;;
21806;SDS011;11065;50.786;7.840;2022-12-08T06:01:05;3.93;;;2.93;;
21806;SDS011;11065;50.786;7.840;2022-12-08T06:03:32;4.30;;;3.03;;
21806;SDS011;11065;50.786;7.840;2022-12-08T06:05:59;4.20;;;2.73;;
21806;SDS011;11065;50.786;7.840;2022-12-08T06:08:26;3.97;;;2.57;;
21806;SDS011;11065;50.786;7.840;2022-12-08T06:10:52;4.00;;;2.70;;
21806;SDS011;11065;50.786;7.840;2022-12-08T06:13:19;5.20;;;2.70;;
21806;SDS011;11065;50.786;7.840;2022-12-08T06:15:46;3.90;;;2.70;;
21806;SDS011;11065;50.786;7.840;2022-12-08T06:18:13;3.77;;;2.93;;
21806;SDS011;11065;50.786;7.840;2022-12-08T06:20:39;5.00;;;3.10;;
21806;SDS011;11065;50.786;7.840;2022-12-08T06:23:06;4.77;;;3.37;;
21806;SDS011;11065;50.786;7.840;2022-12-08T06:25:33;4.27;;;3.23;;
21806;SDS011;11065;50.786;7.840;2022-12-08T06:28:00;8.43;;;3.50;;
21806;SDS011;11065;50.786;7.840;2022-12-08T06:30:26;4.77;;;3.20;;
21806;SDS011;11065;50.786;7.840;2022-12-08T06:32:53;4.20;;;2.90;;
21806;SDS011;11065;50.786;7.840;2022-12-08T06:35:20;6.07;;;4.07;;
21806;SDS011;11065;50.786;7.840;2022-12-08T06:37:47;4.97;;;3.10;;
21806;SDS011;11065;50.786;7.840;2022-12-08T06:40:14;6.50;;;3.77;;
21806;SDS011;11065;50.786;7.840;2022-12-08T06:42:42;4.90;;;3.33;;
21806;SDS011;11065;50.786;7.840;2022-12-08T06:45:10;4.90;;;3.13;;
21806;SDS011;11065;50.786;7.840;2022-12-08T06:47:38;4.97;;;3.00;;
21806;SDS011;11065;50.786;7.840;2022-12-08T06:50:05;4.87;;;3.60;;
21806;SDS011;11065;50.786;7.840;2022-12-08T06:52:33;5.37;;;3.53;;
21806;SDS011;11065;50.786;7.840;2022-12-08T06:55:06;5.17;;;3.40;;
21806;SDS011;11065;50.786;7.840;2022-12-08T06:57:34;6.30;;;3.73;;
21806;SDS011;11065;50.786;7.840;2022-12-08T07:00:01;5.77;;;3.70;;
21806;SDS011;11065;50.786;7.840;2022-12-08T07:02:29;6.33;;;4.50;;
21806;SDS011;11065;50.786;7.840;2022-12-08T07:04:56;6.60;;;4.23;;
21806;SDS011;11065;50.786;7.840;2022-12-08T07:07:23;5.87;;;3.63;;
21806;SDS011;11065;50.786;7.840;2022-12-08T07:09:50;7.40;;;4.67;;
21806;SDS011;11065;50.786;7.840;2022-12-08T07:12:17;5.90;;;4.00;;
21806;SDS011;11065;50.786;7.840;2022-12-08T07:14:44;6.77;;;4.37;;
21806;SDS011;11065;50.786;7.840;2022-12-08T07:17:10;6.23;;;3.87;;
21806;SDS011;11065;50.786;7.840;2022-12-08T07:19:37;6.50;;;3.90;;
21806;SDS011;11065;50.786;7.840;2022-12-08T07:22:04;7.63;;;4.47;;
21806;SDS011;11065;50.786;7.840;2022-12-08T07:24:31;6.73;;;4.60;;
21806;SDS011;11065;50.786;7.840;2022-12-08T07:26:58;6.93;;;4.70;;
21806;SDS011;11065;50.786;7.840;2022-12-08T07:29:25;5.77;;;4.23;;
21806;SDS011;11065;50.786;7.840;2022-12-08T07:31:52;7.93;;;4.47;;
21806;SDS011;11065;50.786;7.840;2022-12-08T07:34:18;5.97;;;4.50;;
21806;SDS011;11065;50.786;7.840;2022-12-08T07:36:45;6.97;;;4.43;;
21806;SDS011;11065;50.786;7.840;2022-12-08T07:39:12;5.97;;;3.83;;
21806;SDS011;11065;50.786;7.840;2022-12-08T07:41:38;6.93;;;4.57;;
21806;SDS011;11065;50.786;7.840;2022-12-08T07:44:05;7.10;;;4.73;;
21806;SDS011;11065;50.786;7.840;2022-12-08T07:46:32;6.53;;;4.57;;
21806;SDS011;11065;50.786;7.840;2022-12-08T07:48:59;7.17;;;4.47;;
21806;SDS011;11065;50.786;7.840;2022-12-08T07:51:26;5.43;;;4.27;;
21806;SDS011;11065;50.786;7.840;2022-12-08T07:53:53;6.63;;;4.10;;
21806;SDS011;11065;50.786;7.840;2022-12-08T07:56:20;6.80;;;4.67;;
21806;SDS011;11065;50.786;7.840;2022-12-08T07:58:47;7.47;;;5.00;;
21806;SDS011;11065;50.786;7.840;2022-12-08T08:01:18;6.20;;;4.60;;
21806;SDS011;11065;50.786;7.840;2022-12-08T08:03:45;6.87;;;4.90;;
21806;SDS011;11065;50.786;7.840;2022-12-08T08:06:12;7.17;;;4.47;;
21806;SDS011;11065;50.786;7.840;2022-12-08T08:08:39;6.03;;;4.33;;
21806;SDS011;11065;50.786;7.840;2022-12-08T08:11:06;6.80;;;4.50;;
21806;SDS011;11065;50.786;7.840;2022-12-08T08:13:44;6.77;;;3.90;;
21806;SDS011;11065;50.786;7.840;2022-12-08T08:16:11;7.57;;;5.00;;
21806;SDS011;11065;50.786;7.840;2022-12-08T08:18:39;7.30;;;4.73;;
21806;SDS011;11065;50.786;7.840;2022-12-08T08:21:06;6.30;;;4.40;;
21806;SDS011;11065;50.786;7.840;2022-12-08T08:23:53;5.40;;;3.93;;
21806;SDS011;11065;50.786;7.840;2022-12-08T08:26:19;5.60;;;3.90;;
21806;SDS011;11065;50.786;7.840;2022-12-08T08:28:46;4.90;;;3.87;;
21806;SDS011;11065;50.786;7.840;2022-12-08T08:31:15;6.43;;;4.00;;
21806;SDS011;11065;50.786;7.840;2022-12-08T08:33:42;6.60;;;3.83;;
21806;SDS011;11065;50.786;7.840;2022-12-08T08:36:08;7.47;;;4.43;;
21806;SDS011;11065;50.786;7.840;2022-12-08T08:38:36;7.47;;;4.40;;
21806;SDS011;11065;50.786;7.840;2022-12-08T08:41:08;5.57;;;4.10;;
21806;SDS011;11065;50.786;7.840;2022-12-08T08:43:36;5.80;;;3.67;;
21806;SDS011;11065;50.786;7.840;2022-12-08T08:46:04;7.37;;;4.10;;
21806;SDS011;11065;50.786;7.840;2022-12-08T08:48:32;6.43;;;3.93;;
21806;SDS011;11065;50.786;7.840;2022-12-08T08:51:05;6.73;;;3.63;;
21806;SDS011;11065;50.786;7.840;2022-12-08T08:53:33;5.33;;;3.43;;
21806;SDS011;11065;50.786;7.840;2022-12-08T08:56:00;5.10;;;3.50;;
21806;SDS011;11065;50.786;7.840;2022-12-08T08:58:28;7.40;;;4.00;;
21806;SDS011;11065;50.786;7.840;2022-12-08T09:00:54;5.47;;;3.50;;
21806;SDS011;11065;50.786;7.840;2022-12-08T09:03:21;5.17;;;3.73;;
21806;SDS011;11065;50.786;7.840;2022-12-08T09:05:49;5.77;;;3.47;;
21806;SDS011;11065;50.786;7.840;2022-12-08T09:08:16;6.10;;;3.77;;
21806;SDS011;11065;50.786;7.840;2022-12-08T09:10:43;5.43;;;4.07;;
21806;SDS011;11065;50.786;7.840;2022-12-08T09:13:10;7.60;;;4.07;;
21806;SDS011;11065;50.786;7.840;2022-12-08T09:15:37;6.63;;;4.60;;
21806;SDS011;11065;50.786;7.840;2022-12-08T09:18:04;6.47;;;4.17;;
21806;SDS011;11065;50.786;7.840;2022-12-08T09:20:32;6.87;;;4.40;;
21806;SDS011;11065;50.786;7.840;2022-12-08T09:23:00;5.70;;;3.83;;
21806;SDS011;11065;50.786;7.840;2022-12-08T09:25:27;6.40;;;3.63;;
21806;SDS011;11065;50.786;7.840;2022-12-08T09:27:54;5.13;;;3.67;;
21806;SDS011;11065;50.786;7.840;2022-12-08T09:30:20;5.23;;;3.40;;
21806;SDS011;11065;50.786;7.840;2022-12-08T09:32:47;6.80;;;3.43;;
21806;SDS011;11065;50.786;7.840;2022-12-08T09:35:14;4.43;;;3.30;;
21806;SDS011;11065;50.786;7.840;2022-12-08T09:37:41;5.97;;;3.63;;
21806;SDS011;11065;50.786;7.840;2022-12-08T09:40:09;5.47;;;3.57;;
21806;SDS011;11065;50.786;7.840;2022-12-08T09:45:28;4.33;;;3.17;;
21806;SDS011;11065;50.786;7.840;2022-12-08T09:47:59;7.27;;;5.27;;
21806;SDS011;11065;50.786;7.840;2022-12-08T09:50:46;7.17;;;4.60;;
21806;SDS011;11065;50.786;7.840;2022-12-08T09:53:33;5.23;;;3.27;;
21806;SDS011;11065;50.786;7.840;2022-12-08T09:56:14;5.13;;;3.40;;
21806;SDS011;11065;50.786;7.840;2022-12-08T10:01:51;5.97;;;3.93;;
21806;SDS011;11065;50.786;7.840;2022-12-08T10:13:05;5.50;;;3.77;;
21806;SDS011;11065;50.786;7.840;2022-12-08T10:16:07;4.90;;;3.27;;
21806;SDS011;11065;50.786;7.840;2022-12-08T10:18:59;6.00;;;3.90;;
21806;SDS011;11065;50.786;7.840;2022-12-08T10:21:34;3.43;;;2.57;;
21806;SDS011;11065;50.786;7.840;2022-12-08T10:24:03;5.47;;;3.73;;
21806;SDS011;11065;50.786;7.840;2022-12-08T10:26:38;5.67;;;3.20;;
21806;SDS011;11065;50.786;7.840;2022-12-08T10:29:07;6.53;;;3.40;;
21806;SDS011;11065;50.786;7.840;2022-12-08T10:31:37;4.67;;;3.30;;
21806;SDS011;11065;50.786;7.840;2022-12-08T10:34:18;5.10;;;3.67;;
21806;SDS011;11065;50.786;7.840;2022-12-08T10:36:50;5.27;;;3.30;;
21806;SDS011;11065;50.786;7.840;2022-12-08T10:39:28;5.77;;;3.90;;
21806;SDS011;11065;50.786;7.840;2022-12-08T10:47:36;7.20;;;4.10;;
21806;SDS011;11065;50.786;7.840;2022-12-08T10:50:29;6.77;;;4.37;;
21806;SDS011;11065;50.786;7.840;2022-12-08T10:52:58;5.97;;;4.37;;
21806;SDS011;11065;50.786;7.840;2022-12-08T10:55:27;6.30;;;4.50;;
21806;SDS011;11065;50.786;7.840;2022-12-08T10:57:55;7.23;;;4.43;;
21806;SDS011;11065;50.786;7.840;2022-12-08T11:00:25;7.00;;;4.50;;
21806;SDS011;11065;50.786;7.840;2022-12-08T11:03:00;6.83;;;4.47;;
21806;SDS011;11065;50.786;7.840;2022-12-08T11:05:33;5.37;;;4.23;;
21806;SDS011;11065;50.786;7.840;2022-12-08T11:08:02;6.43;;;4.43;;
21806;SDS011;11065;50.786;7.840;2022-12-08T11:10:32;6.80;;;4.23;;
21806;SDS011;11065;50.786;7.840;2022-12-08T11:13:11;7.20;;;4.07;;
21806;SDS011;11065;50.786;7.840;2022-12-08T11:15:52;5.47;;;3.93;;
21806;SDS011;11065;50.786;7.840;2022-12-08T11:18:24;5.23;;;3.73;;
21806;SDS011;11065;50.786;7.840;2022-12-08T11:21:06;4.97;;;3.77;;
21806;SDS011;11065;50.786;7.840;2022-12-08T11:23:38;5.97;;;3.70;;
21806;SDS011;11065;50.786;7.840;2022-12-08T11:26:25;4.73;;;3.40;;
21806;SDS011;11065;50.786;7.840;2022-12-08T11:28:56;5.43;;;2.93;;
21806;SDS011;11065;50.786;7.840;2022-12-08T11:31:30;4.57;;;3.30;;
21806;SDS011;11065;50.786;7.840;2022-12-08T11:34:00;4.77;;;3.23;;
21806;SDS011;11065;50.786;7.840;2022-12-08T11:36:28;7.07;;;5.30;;
21806;SDS011;11065;50.786;7.840;2022-12-08T11:38:59;6.83;;;4.67;;
21806;SDS011;11065;50.786;7.840;2022-12-08T11:41:30;7.13;;;3.80;;
21806;SDS011;11065;50.786;7.840;2022-12-08T11:49:40;4.50;;;3.00;;
21806;SDS011;11065;50.786;7.840;2022-12-08T11:54:45;7.33;;;3.30;;
21806;SDS011;11065;50.786;7.840;2022-12-08T11:57:17;4.50;;;2.50;;
21806;SDS011;11065;50.786;7.840;2022-12-08T11:59:49;3.70;;;2.30;;
21806;SDS011;11065;50.786;7.840;2022-12-08T12:02:24;4.60;;;2.47;;
21806;SDS011;11065;50.786;7.840;2022-12-08T12:04:55;4.00;;;2.20;;
21806;SDS011;11065;50.786;7.840;2022-12-08T12:07:45;3.57;;;1.73;;
21806;SDS011;11065;50.786;7.840;2022-12-08T12:13:21;3.57;;;1.77;;
21806;SDS011;11065;50.786;7.840;2022-12-08T12:19:00;2.60;;;1.70;;
21806;SDS011;11065;50.786;7.840;2022-12-08T12:21:32;3.27;;;1.70;;
21806;SDS011;11065;50.786;7.840;2022-12-08T12:24:15;3.17;;;1.63;;
21806;SDS011;11065;50.786;7.840;2022-12-08T12:29:31;2.30;;;1.53;;
21806;SDS011;11065;50.786;7.840;2022-12-08T12:32:02;3.87;;;2.00;;
21806;SDS011;11065;50.786;7.840;2022-12-08T12:34:33;3.57;;;1.93;;
21806;SDS011;11065;50.786;7.840;2022-12-08T12:39:33;3.73;;;2.07;;
21806;SDS011;11065;50.786;7.840;2022-12-08T12:42:40;3.63;;;2.20;;
21806;SDS011;11065;50.786;7.840;2022-12-08T12:47:52;4.53;;;2.47;;
21806;SDS011;11065;50.786;7.840;2022-12-08T12:50:45;4.23;;;2.27;;
21806;SDS011;11065;50.786;7.840;2022-12-08T13:03:42;4.70;;;2.63;;
21806;SDS011;11065;50.786;7.840;2022-12-08T13:06:13;5.20;;;2.77;;
21806;SDS011;11065;50.786;7.840;2022-12-08T13:08:49;5.60;;;3.33;;
21806;SDS011;11065;50.786;7.840;2022-12-08T13:11:18;6.77;;;3.67;;
21806;SDS011;11065;50.786;7.840;2022-12-08T13:13:59;5.37;;;3.33;;
21806;SDS011;11065;50.786;7.840;2022-12-08T13:16:47;5.67;;;3.70;;
21806;SDS011;11065;50.786;7.840;2022-12-08T13:19:20;6.97;;;4.33;;
21806;SDS011;11065;50.786;7.840;2022-12-08T13:21:48;7.17;;;4.00;;
21806;SDS011;11065;50.786;7.840;2022-12-08T13:29:30;6.67;;;3.57;;
21806;SDS011;11065;50.786;7.840;2022-12-08T13:32:01;6.67;;;4.10;;
21806;SDS011;11065;50.786;7.840;2022-12-08T13:34:45;5.67;;;3.40;;
21806;SDS011;11065;50.786;7.840;2022-12-08T13:40:23;5.03;;;2.80;;
21806;SDS011;11065;50.786;7.840;2022-12-08T13:42:56;4.70;;;2.90;;
21806;SDS011;11065;50.786;7.840;2022-12-08T13:45:35;3.77;;;2.57;;
21806;SDS011;11065;50.786;7.840;2022-12-08T13:48:27;3.67;;;2.60;;
21806;SDS011;11065;50.786;7.840;2022-12-08T13:51:20;3.50;;;2.20;;
21806;SDS011;11065;50.786;7.840;2022-12-08T13:57:07;4.07;;;2.17;;
21806;SDS011;11065;50.786;7.840;2022-12-08T14:00:18;5.10;;;2.43;;
21806;SDS011;11065;50.786;7.840;2022-12-08T14:02:47;5.23;;;2.33;;
21806;SDS011;11065;50.786;7.840;2022-12-08T14:05:17;3.90;;;2.27;;
21806;SDS011;11065;50.786;7.840;2022-12-08T14:08:08;4.20;;;2.23;;
21806;SDS011;11065;50.786;7.840;2022-12-08T14:11:09;2.87;;;1.97;;
21806;SDS011;11065;50.786;7.840;2022-12-08T14:14:06;4.13;;;2.10;;
21806;SDS011;11065;50.786;7.840;2022-12-08T14:17:09;4.20;;;2.37;;
21806;SDS011;11065;50.786;7.840;2022-12-08T14:19:38;3.60;;;2.40;;
21806;SDS011;11065;50.786;7.840;2022-12-08T14:24:39;4.13;;;2.33;;
21806;SDS011;11065;50.786;7.840;2022-12-08T14:27:10;4.57;;;2.73;;
21806;SDS011;11065;50.786;7.840;2022-12-08T14:29:56;4.77;;;2.53;;
21806;SDS011;11065;50.786;7.840;2022-12-08T14:32:47;4.60;;;2.67;;
21806;SDS011;11065;50.786;7.840;2022-12-08T14:35:18;3.53;;;2.43;;
21806;SDS011;11065;50.786;7.840;2022-12-08T14:37:54;5.50;;;3.40;;
21806;SDS011;11065;50.786;7.840;2022-12-08T14:40:34;5.10;;;3.37;;
21806;SDS011;11065;50.786;7.840;2022-12-08T14:53:34;5.30;;;3.40;;
21806;SDS011;11065;50.786;7.840;2022-12-08T14:58:49;6.03;;;4.70;;
21806;SDS011;11065;50.786;7.840;2022-12-08T15:01:28;7.73;;;5.40;;
21806;SDS011;11065;50.786;7.840;2022-12-08T15:04:06;8.60;;;5.33;;
21806;SDS011;11065;50.786;7.840;2022-12-08T15:17:33;5.87;;;3.57;;
21806;SDS011;11065;50.786;7.840;2022-12-08T15:23:03;5.23;;;3.57;;
21806;SDS011;11065;50.786;7.840;2022-12-08T15:25:31;7.07;;;2.97;;
21806;SDS011;11065;50.786;7.840;2022-12-08T15:27:58;5.20;;;3.40;;
21806;SDS011;11065;50.786;7.840;2022-12-08T15:30:26;6.40;;;4.33;;
21806;SDS011;11065;50.786;7.840;2022-12-08T15:32:53;8.87;;;5.77;;
21806;SDS011;11065;50.786;7.840;2022-12-08T15:35:21;8.20;;;5.67;;
21806;SDS011;11065;50.786;7.840;2022-12-08T15:37:48;9.10;;;5.73;;
21806;SDS011;11065;50.786;7.840;2022-12-08T15:40:16;7.87;;;5.47;;
21806;SDS011;11065;50.786;7.840;2022-12-08T15:42:44;6.83;;;4.53;;
21806;SDS011;11065;50.786;7.840;2022-12-08T15:45:12;6.43;;;4.07;;
21806;SDS011;11065;50.786;7.840;2022-12-08T15:47:42;5.67;;;3.90;;
21806;SDS011;11065;50.786;7.840;2022-12-08T15:50:14;7.23;;;5.27;;
21806;SDS011;11065;50.786;7.840;2022-12-08T15:52:43;7.17;;;5.17;;
21806;SDS011;11065;50.786;7.840;2022-12-08T15:55:13;10.10;;;6.10;;
21806;SDS011;11065;50.786;7.840;2022-12-08T15:57:42;8.20;;;5.53;;
21806;SDS011;11065;50.786;7.840;2022-12-08T16:00:32;9.83;;;5.83;;
21806;SDS011;11065;50.786;7.840;2022-12-08T16:06:14;10.13;;;5.50;;
21806;SDS011;11065;50.786;7.840;2022-12-08T16:09:03;8.60;;;5.63;;
21806;SDS011;11065;50.786;7.840;2022-12-08T16:11:38;8.33;;;5.80;;
21806;SDS011;11065;50.786;7.840;2022-12-08T16:14:34;9.00;;;5.73;;
21806;SDS011;11065;50.786;7.840;2022-12-08T16:17:22;7.27;;;5.40;;
21806;SDS011;11065;50.786;7.840;2022-12-08T16:19:49;8.77;;;5.73;;
21806;SDS011;11065;50.786;7.840;2022-12-08T16:22:16;8.07;;;5.87;;
21806;SDS011;11065;50.786;7.840;2022-12-08T16:25:05;11.73;;;6.23;;
21806;SDS011;11065;50.786;7.840;2022-12-08T16:27:49;8.43;;;6.10;;
21806;SDS011;11065;50.786;7.840;2022-12-08T16:30:40;7.70;;;5.90;;
21806;SDS011;11065;50.786;7.840;2022-12-08T16:33:08;9.67;;;6.43;;
21806;SDS011;11065;50.786;7.840;2022-12-08T16:35:37;9.00;;;6.47;;
21806;SDS011;11065;50.786;7.840;2022-12-08T16:38:04;10.43;;;6.97;;
21806;SDS011;11065;50.786;7.840;2022-12-08T16:40:31;10.50;;;6.83;;
21806;SDS011;11065;50.786;7.840;2022-12-08T16:42:57;8.87;;;6.53;;
21806;SDS011;11065;50.786;7.840;2022-12-08T16:45:25;8.53;;;6.33;;
21806;SDS011;11065;50.786;7.840;2022-12-08T16:47:58;8.87;;;6.77;;
21806;SDS011;11065;50.786;7.840;2022-12-08T16:50:30;8.30;;;6.40;;
21806;SDS011;11065;50.786;7.840;2022-12-08T16:53:00;7.97;;;6.27;;
21806;SDS011;11065;50.786;7.840;2022-12-08T16:55:29;8.33;;;5.20;;
21806;SDS011;11065;50.786;7.840;2022-12-08T16:57:56;8.40;;;5.40;;
21806;SDS011;11065;50.786;7.840;2022-12-08T17:00:24;8.00;;;5.30;;
21806;SDS011;11065;50.786;7.840;2022-12-08T17:02:52;6.93;;;4.83;;
21806;SDS011;11065;50.786;7.840;2022-12-08T17:05:21;11.77;;;7.47;;
21806;SDS011;11065;50.786;7.840;2022-12-08T17:07:50;13.27;;;8.03;;
21806;SDS011;11065;50.786;7.840;2022-12-08T17:10:19;17.50;;;9.63;;